createdAt,value
2022-11-29T00:00:23.689Z,1006.87
2022-11-29T00:01:23.680Z,1006.85
2022-11-29T00:02:23.754Z,1006.87
2022-11-29T00:03:23.672Z,1006.86
2022-11-29T00:04:23.650Z,1006.92
2022-11-29T00:05:23.669Z,1006.90
2022-11-29T00:06:23.628Z,1006.91
2022-11-29T00:07:23.664Z,1006.88
2022-11-29T00:08:23.605Z,1006.99
2022-11-29T00:09:23.589Z,1006.90
2022-11-29T00:10:23.585Z,1006.94
2022-11-29T00:11:23.600Z,1006.94
2022-11-29T00:12:23.578Z,1006.97
2022-11-29T00:13:23.572Z,1006.97
2022-11-29T00:14:23.560Z,1006.96
2022-11-29T00:15:23.577Z,1007.01
2022-11-29T00:16:23.551Z,1007.01
2022-11-29T00:17:23.616Z,1006.99
2022-11-29T00:18:23.499Z,1006.96
2022-11-29T00:19:23.497Z,1006.93
2022-11-29T00:20:23.477Z,1006.98
2022-11-29T00:21:23.468Z,1006.95
2022-11-29T00:22:23.448Z,1006.93
2022-11-29T00:23:23.480Z,1006.97
2022-11-29T00:24:23.427Z,1006.95
2022-11-29T00:25:23.455Z,1006.92
2022-11-29T00:26:23.410Z,1006.97
2022-11-29T00:27:23.459Z,1006.93
2022-11-29T00:28:23.387Z,1006.98
2022-11-29T00:29:23.384Z,1007.01
2022-11-29T00:30:23.422Z,1006.96
2022-11-29T00:31:23.357Z,1006.94
2022-11-29T00:32:23.386Z,1006.95
2022-11-29T00:33:23.349Z,1006.97
2022-11-29T00:34:23.337Z,1007.00
2022-11-29T00:35:23.361Z,1006.96
2022-11-29T00:36:23.305Z,1007.03
2022-11-29T00:37:23.298Z,1007.03
2022-11-29T00:38:23.287Z,1007.01
2022-11-29T00:39:23.281Z,1007.01
2022-11-29T00:40:23.265Z,1007.03
2022-11-29T00:41:23.289Z,1007.04
2022-11-29T00:42:23.249Z,1007.05
2022-11-29T00:43:23.230Z,1007.01
2022-11-29T00:44:23.234Z,1007.05
2022-11-29T00:45:23.247Z,1007.01
2022-11-29T00:46:23.261Z,1007.05
2022-11-29T00:47:23.216Z,1007.05
2022-11-29T00:48:23.216Z,1007.07
2022-11-29T00:49:23.195Z,1007.06
2022-11-29T00:50:23.158Z,1007.08
2022-11-29T00:51:23.185Z,1007.07
2022-11-29T00:52:23.135Z,1007.03
2022-11-29T00:53:23.196Z,1007.04
2022-11-29T00:54:23.116Z,1007.01
2022-11-29T00:55:23.107Z,1007.04
2022-11-29T00:56:23.107Z,1007.06
2022-11-29T00:57:23.086Z,1007.07
2022-11-29T00:58:23.107Z,1007.08
2022-11-29T00:59:23.065Z,1007.05
2022-11-29T01:00:23.096Z,1007.04
2022-11-29T01:01:23.142Z,1007.09
2022-11-29T01:02:23.088Z,1007.04
2022-11-29T01:03:23.017Z,1007.08
2022-11-29T01:04:23.017Z,1007.12
2022-11-29T01:05:23.015Z,1007.07
2022-11-29T01:06:23.015Z,1007.02
2022-11-29T01:07:23.033Z,1007.14
2022-11-29T01:08:22.964Z,1007.19
2022-11-29T01:09:22.961Z,1007.13
2022-11-29T01:10:22.938Z,1007.14
2022-11-29T01:11:22.974Z,1007.14
2022-11-29T01:12:22.955Z,1007.18
2022-11-29T01:13:22.960Z,1007.14
2022-11-29T01:14:22.906Z,1007.13
2022-11-29T01:15:22.894Z,1007.13
2022-11-29T01:16:22.950Z,1007.16
2022-11-29T01:17:22.875Z,1007.15
2022-11-29T01:18:22.856Z,1007.12
2022-11-29T01:19:22.847Z,1007.12
2022-11-29T01:20:22.834Z,1007.12
2022-11-29T01:21:22.845Z,1007.14
2022-11-29T01:22:22.858Z,1007.18
2022-11-29T01:23:22.811Z,1007.14
2022-11-29T01:24:22.814Z,1007.18
2022-11-29T01:25:22.785Z,1007.18
2022-11-29T01:26:22.766Z,1007.19
2022-11-29T01:27:22.784Z,1007.20
2022-11-29T01:28:22.775Z,1007.18
2022-11-29T01:29:22.775Z,1007.26
2022-11-29T01:30:22.732Z,1007.24
2022-11-29T01:31:22.725Z,1007.22
2022-11-29T01:32:22.734Z,1007.21
2022-11-29T01:33:22.694Z,1007.23
2022-11-29T01:34:22.712Z,1007.26
2022-11-29T01:35:22.685Z,1007.22
2022-11-29T01:36:22.662Z,1007.24
2022-11-29T01:37:22.653Z,1007.30
2022-11-29T01:38:22.645Z,1007.27
2022-11-29T01:39:22.666Z,1007.29
2022-11-29T01:40:22.620Z,1007.30
2022-11-29T01:41:22.644Z,1007.32
2022-11-29T01:42:22.593Z,1007.29
2022-11-29T01:43:22.594Z,1007.29
2022-11-29T01:44:22.578Z,1007.33
2022-11-29T01:45:22.617Z,1007.31
2022-11-29T01:46:22.593Z,1007.33
2022-11-29T01:47:22.552Z,1007.34
2022-11-29T01:48:22.534Z,1007.36
2022-11-29T01:49:22.564Z,1007.31
2022-11-29T01:50:22.571Z,1007.32
2022-11-29T01:51:22.532Z,1007.32
2022-11-29T01:52:22.492Z,1007.33
2022-11-29T01:53:22.490Z,1007.34
2022-11-29T01:54:22.474Z,1007.37
2022-11-29T01:55:22.495Z,1007.31
2022-11-29T01:56:22.482Z,1007.35
2022-11-29T01:57:22.483Z,1007.36
2022-11-29T01:58:22.433Z,1007.36
2022-11-29T01:59:22.422Z,1007.43
2022-11-29T02:00:22.402Z,1007.41
2022-11-29T02:01:22.666Z,1007.43
2022-11-29T02:02:22.419Z,1007.42
2022-11-29T02:03:22.382Z,1007.42
2022-11-29T02:04:22.362Z,1007.45
2022-11-29T02:05:22.402Z,1007.50
2022-11-29T02:06:22.344Z,1007.39
2022-11-29T02:07:22.397Z,1007.46
2022-11-29T02:08:22.392Z,1007.47
2022-11-29T02:09:22.323Z,1007.43
2022-11-29T02:10:22.300Z,1007.47
2022-11-29T02:11:22.321Z,1007.48
2022-11-29T02:12:22.271Z,1007.50
2022-11-29T02:13:22.273Z,1007.53
2022-11-29T02:14:22.279Z,1007.51
2022-11-29T02:15:22.258Z,1007.51
2022-11-29T02:16:22.273Z,1007.51
2022-11-29T02:17:22.291Z,1007.54
2022-11-29T02:18:22.224Z,1007.53
2022-11-29T02:19:22.240Z,1007.54
2022-11-29T02:20:22.205Z,1007.52
2022-11-29T02:21:22.201Z,1007.53
2022-11-29T02:22:22.184Z,1007.51
2022-11-29T02:23:22.232Z,1007.52
2022-11-29T02:24:22.172Z,1007.52
2022-11-29T02:25:22.157Z,1007.52
2022-11-29T02:26:22.136Z,1007.61
2022-11-29T02:27:22.132Z,1007.55
2022-11-29T02:28:22.122Z,1007.56
2022-11-29T02:29:22.142Z,1007.57
2022-11-29T02:30:22.101Z,1007.62
2022-11-29T02:31:22.094Z,1007.56
2022-11-29T02:32:22.482Z,1007.63
2022-11-29T02:33:22.116Z,1007.60
2022-11-29T02:34:22.058Z,1007.63
2022-11-29T02:35:22.064Z,1007.66
2022-11-29T02:36:22.041Z,1007.65
2022-11-29T02:37:22.036Z,1007.61
2022-11-29T02:38:22.028Z,1007.65
2022-11-29T02:39:22.060Z,1007.61
2022-11-29T02:40:21.980Z,1007.62
2022-11-29T02:41:22.064Z,1007.59
2022-11-29T02:42:21.972Z,1007.60
2022-11-29T02:43:21.961Z,1007.63
2022-11-29T02:44:21.948Z,1007.63
2022-11-29T02:45:21.979Z,1007.64
2022-11-29T02:46:21.984Z,1007.64
2022-11-29T02:47:21.920Z,1007.60
2022-11-29T02:48:21.910Z,1007.60
2022-11-29T02:49:21.893Z,1007.65
2022-11-29T02:50:21.929Z,1007.69
2022-11-29T02:51:21.879Z,1007.69
2022-11-29T02:52:21.878Z,1007.69
2022-11-29T02:53:21.851Z,1007.71
2022-11-29T02:54:22.080Z,1007.72
2022-11-29T02:55:21.830Z,1007.73
2022-11-29T02:56:21.820Z,1007.73
2022-11-29T02:57:21.803Z,1007.74
2022-11-29T02:58:21.811Z,1007.78
2022-11-29T02:59:21.785Z,1007.76
2022-11-29T03:00:21.831Z,1007.76
2022-11-29T03:01:21.807Z,1007.73
2022-11-29T03:02:21.815Z,1007.77
2022-11-29T03:03:21.749Z,1007.78
2022-11-29T03:04:21.740Z,1007.77
2022-11-29T03:05:21.710Z,1007.79
2022-11-29T03:06:21.749Z,1007.78
2022-11-29T03:07:21.774Z,1007.79
2022-11-29T03:09:31.688Z,1007.81
2022-11-29T03:10:31.670Z,1007.86
2022-11-29T03:11:31.775Z,1007.84
2022-11-29T03:12:31.646Z,1007.86
2022-11-29T03:13:31.626Z,1007.88
2022-11-29T03:14:31.663Z,1007.90
2022-11-29T03:15:31.667Z,1007.88
2022-11-29T03:16:31.594Z,1007.90
2022-11-29T03:17:31.584Z,1007.91
2022-11-29T03:18:31.585Z,1007.91
2022-11-29T03:19:31.564Z,1007.93
2022-11-29T03:20:31.580Z,1007.97
2022-11-29T03:21:31.535Z,1007.96
2022-11-29T03:22:31.534Z,1007.98
2022-11-29T03:23:31.513Z,1008.00
2022-11-29T03:24:31.503Z,1007.98
2022-11-29T03:25:31.524Z,1007.99
2022-11-29T03:26:31.484Z,1007.97
2022-11-29T03:27:31.472Z,1007.98
2022-11-29T03:28:31.465Z,1007.97
2022-11-29T03:29:31.474Z,1007.98
2022-11-29T03:30:31.452Z,1007.97
2022-11-29T03:31:31.507Z,1007.94
2022-11-29T03:32:31.424Z,1008.03
2022-11-29T03:33:31.403Z,1008.00
2022-11-29T03:34:31.445Z,1008.04
2022-11-29T03:35:31.385Z,1008.05
2022-11-29T03:36:31.383Z,1008.07
2022-11-29T03:37:31.374Z,1008.07
2022-11-29T03:38:31.354Z,1008.09
2022-11-29T03:39:31.345Z,1008.12
2022-11-29T03:40:31.373Z,1008.18
2022-11-29T03:41:31.319Z,1008.11
2022-11-29T03:42:31.313Z,1008.17
2022-11-29T03:43:31.305Z,1008.19
2022-11-29T03:44:31.329Z,1008.15
2022-11-29T03:45:31.283Z,1008.15
2022-11-29T03:46:31.388Z,1008.20
2022-11-29T03:47:31.263Z,1008.17
2022-11-29T03:48:31.255Z,1008.17
2022-11-29T03:49:31.233Z,1008.19
2022-11-29T03:50:31.252Z,1008.19
2022-11-29T03:51:31.211Z,1008.18
2022-11-29T03:52:31.205Z,1008.19
2022-11-29T03:53:31.220Z,1008.22
2022-11-29T03:54:31.182Z,1008.21
2022-11-29T03:55:31.174Z,1008.24
2022-11-29T03:56:31.163Z,1008.22
2022-11-29T03:57:31.171Z,1008.20
2022-11-29T03:58:31.142Z,1008.29
2022-11-29T03:59:31.131Z,1008.29
2022-11-29T04:00:31.118Z,1008.32
2022-11-29T04:01:31.149Z,1008.30
2022-11-29T04:02:31.189Z,1008.30
2022-11-29T04:03:31.125Z,1008.32
2022-11-29T04:04:31.083Z,1008.31
2022-11-29T04:05:31.065Z,1008.32
2022-11-29T04:06:31.052Z,1008.25
2022-11-29T04:07:31.057Z,1008.26
2022-11-29T04:08:31.032Z,1008.32
2022-11-29T04:09:31.041Z,1008.31
2022-11-29T04:10:31.010Z,1008.27
2022-11-29T04:11:31.001Z,1008.33
2022-11-29T04:12:31.009Z,1008.35
2022-11-29T04:13:30.978Z,1008.33
2022-11-29T04:14:30.990Z,1008.34
2022-11-29T04:15:30.960Z,1008.37
2022-11-29T04:16:30.953Z,1008.42
2022-11-29T04:17:30.935Z,1008.44
2022-11-29T04:18:30.930Z,1008.39
2022-11-29T04:19:30.931Z,1008.42
2022-11-29T04:20:34.946Z,1008.44
2022-11-29T04:21:31.891Z,1008.44
2022-11-29T04:22:30.880Z,1008.47
2022-11-29T04:23:30.878Z,1008.43
2022-11-29T04:24:31.006Z,1008.48
2022-11-29T04:25:30.911Z,1008.52
2022-11-29T04:26:34.796Z,1008.48
2022-11-29T04:27:30.856Z,1008.46
2022-11-29T04:28:30.810Z,1008.49
2022-11-29T04:29:30.807Z,1008.53
2022-11-29T04:30:30.819Z,1008.53
2022-11-29T04:31:30.848Z,1008.55
2022-11-29T04:32:30.770Z,1008.51
2022-11-29T04:33:30.760Z,1008.50
2022-11-29T04:34:30.750Z,1008.54
2022-11-29T04:35:30.751Z,1008.53
2022-11-29T04:36:30.749Z,1008.52
2022-11-29T04:37:30.759Z,1008.50
2022-11-29T04:38:30.745Z,1008.53
2022-11-29T04:39:30.709Z,1008.59
2022-11-29T04:40:30.679Z,1008.58
2022-11-29T04:41:30.729Z,1008.52
2022-11-29T04:42:30.666Z,1008.57
2022-11-29T04:43:30.759Z,1008.54
2022-11-29T04:44:30.651Z,1008.62
2022-11-29T04:45:30.636Z,1008.61
2022-11-29T04:46:30.720Z,1008.59
2022-11-29T04:47:30.648Z,1008.56
2022-11-29T04:48:30.600Z,1008.57
2022-11-29T04:49:30.707Z,1008.58
2022-11-29T04:50:30.577Z,1008.56
2022-11-29T04:51:32.221Z,1008.56
2022-11-29T04:52:30.591Z,1008.64
2022-11-29T04:53:30.554Z,1008.62
2022-11-29T04:54:30.539Z,1008.63
2022-11-29T04:55:31.281Z,1008.56
2022-11-29T04:56:30.548Z,1008.60
2022-11-29T04:57:30.519Z,1008.62
2022-11-29T04:58:30.489Z,1008.64
2022-11-29T04:59:30.518Z,1008.64
2022-11-29T05:00:30.468Z,1008.66
2022-11-29T05:01:30.501Z,1008.66
2022-11-29T05:02:30.523Z,1008.66
2022-11-29T05:03:30.457Z,1008.69
2022-11-29T05:04:30.435Z,1008.69
2022-11-29T05:05:30.615Z,1008.70
2022-11-29T05:06:30.450Z,1008.73
2022-11-29T05:07:30.411Z,1008.75
2022-11-29T05:08:30.377Z,1008.71
2022-11-29T05:09:30.376Z,1008.75
2022-11-29T05:10:30.518Z,1008.74
2022-11-29T05:11:30.378Z,1008.72
2022-11-29T05:12:30.347Z,1008.76
2022-11-29T05:13:30.347Z,1008.77
2022-11-29T05:14:30.318Z,1008.73
2022-11-29T05:15:30.315Z,1008.77
2022-11-29T05:16:30.387Z,1008.80
2022-11-29T05:17:30.295Z,1008.78
2022-11-29T05:18:30.275Z,1008.79
2022-11-29T05:19:30.305Z,1008.76
2022-11-29T05:20:30.245Z,1008.79
2022-11-29T05:21:30.244Z,1008.76
2022-11-29T05:22:30.253Z,1008.79
2022-11-29T05:23:30.224Z,1008.80
2022-11-29T05:24:30.214Z,1008.74
2022-11-29T05:25:30.195Z,1008.79
2022-11-29T05:26:30.185Z,1008.81
2022-11-29T05:27:30.186Z,1008.77
2022-11-29T05:28:30.193Z,1008.80
2022-11-29T05:29:30.154Z,1008.79
2022-11-29T05:30:30.164Z,1008.82
2022-11-29T05:31:30.200Z,1008.84
2022-11-29T05:32:30.123Z,1008.85
2022-11-29T05:33:30.114Z,1008.87
2022-11-29T05:34:34.713Z,1008.91
2022-11-29T05:35:31.163Z,1008.88
2022-11-29T05:36:30.074Z,1008.89
2022-11-29T05:37:30.123Z,1008.88
2022-11-29T05:38:30.064Z,1008.91
2022-11-29T05:39:30.045Z,1008.93
2022-11-29T05:40:30.055Z,1008.96
2022-11-29T05:41:30.023Z,1008.98
2022-11-29T05:42:30.012Z,1008.98
2022-11-29T05:43:30.043Z,1008.98
2022-11-29T05:44:29.983Z,1008.99
2022-11-29T05:45:30.022Z,1009.04
2022-11-29T05:46:30.032Z,1009.04
2022-11-29T05:47:31.648Z,1009.04
2022-11-29T05:48:29.983Z,1009.06
2022-11-29T05:49:29.944Z,1009.09
2022-11-29T05:50:29.935Z,1009.07
2022-11-29T05:51:29.934Z,1009.13
2022-11-29T05:52:29.965Z,1009.11
2022-11-29T05:53:29.900Z,1009.15
2022-11-29T05:54:29.904Z,1009.18
2022-11-29T05:55:29.878Z,1009.13
2022-11-29T05:56:29.864Z,1009.20
2022-11-29T05:57:29.858Z,1009.20
2022-11-29T05:58:30.736Z,1009.22
2022-11-29T05:59:29.854Z,1009.24
2022-11-29T06:00:29.828Z,1009.24
2022-11-29T06:01:29.887Z,1009.26
2022-11-29T06:02:29.829Z,1009.27
2022-11-29T06:03:29.813Z,1009.30
2022-11-29T06:04:29.823Z,1009.33
2022-11-29T06:05:29.783Z,1009.35
2022-11-29T06:06:29.753Z,1009.38
2022-11-29T06:07:29.831Z,1009.31
2022-11-29T06:08:29.733Z,1009.36
2022-11-29T06:09:29.826Z,1009.36
2022-11-29T06:10:29.714Z,1009.39
2022-11-29T06:11:29.722Z,1009.40
2022-11-29T06:12:29.692Z,1009.39
2022-11-29T06:13:29.731Z,1009.44
2022-11-29T06:14:29.670Z,1009.44
2022-11-29T06:15:29.662Z,1009.46
2022-11-29T06:16:29.711Z,1009.53
2022-11-29T06:17:34.363Z,1009.58
2022-11-29T06:18:30.702Z,1009.57
2022-11-29T06:19:29.653Z,1009.59
2022-11-29T06:20:29.601Z,1009.61
2022-11-29T06:21:29.592Z,1009.61
2022-11-29T06:22:29.581Z,1009.60
2022-11-29T06:23:29.572Z,1009.63
2022-11-29T06:24:29.651Z,1009.62
2022-11-29T06:25:29.599Z,1009.67
2022-11-29T06:26:29.531Z,1009.64
2022-11-29T06:27:29.552Z,1009.63
2022-11-29T06:28:29.511Z,1009.66
2022-11-29T06:29:29.508Z,1009.67
2022-11-29T06:30:29.508Z,1009.67
2022-11-29T06:31:31.779Z,1009.67
2022-11-29T06:32:29.475Z,1009.71
2022-11-29T06:33:29.471Z,1009.75
2022-11-29T06:34:31.006Z,1009.72
2022-11-29T06:35:29.441Z,1009.70
2022-11-29T06:36:29.430Z,1009.69
2022-11-29T06:37:29.555Z,1009.72
2022-11-29T06:38:29.402Z,1009.73
2022-11-29T06:39:29.398Z,1009.73
2022-11-29T06:40:29.398Z,1009.78
2022-11-29T06:41:29.370Z,1009.77
2022-11-29T06:42:29.390Z,1009.77
2022-11-29T06:43:29.391Z,1009.80
2022-11-29T06:44:29.340Z,1009.83
2022-11-29T06:45:29.340Z,1009.85
2022-11-29T06:46:29.388Z,1009.85
2022-11-29T06:47:29.320Z,1009.89
2022-11-29T06:48:29.291Z,1009.88
2022-11-29T06:49:32.296Z,1009.87
2022-11-29T06:50:29.282Z,1009.92
2022-11-29T06:51:29.280Z,1009.92
2022-11-29T06:52:29.262Z,1009.90
2022-11-29T06:53:29.251Z,1009.93
2022-11-29T06:54:29.241Z,1009.88
2022-11-29T06:55:29.250Z,1009.92
2022-11-29T06:56:29.214Z,1009.89
2022-11-29T06:57:29.229Z,1009.87
2022-11-29T06:58:34.472Z,1009.93
2022-11-29T06:59:30.191Z,1009.89
2022-11-29T07:00:29.643Z,1009.88
2022-11-29T07:01:29.196Z,1009.91
2022-11-29T07:02:29.234Z,1009.91
2022-11-29T07:03:29.143Z,1009.95
2022-11-29T07:04:29.131Z,1009.98
2022-11-29T07:05:29.121Z,1010.00
2022-11-29T07:06:29.100Z,1010.00
2022-11-29T07:07:29.258Z,1010.03
2022-11-29T07:08:29.122Z,1010.04
2022-11-29T07:09:29.078Z,1010.02
2022-11-29T07:10:29.059Z,1010.07
2022-11-29T07:11:29.063Z,1010.02
2022-11-29T07:12:29.077Z,1010.07
2022-11-29T07:13:29.029Z,1010.01
2022-11-29T07:14:29.018Z,1010.06
2022-11-29T07:15:29.019Z,1010.05
2022-11-29T07:16:29.035Z,1010.06
2022-11-29T07:17:28.989Z,1010.11
2022-11-29T07:18:29.517Z,1010.06
2022-11-29T07:19:28.969Z,1010.08
2022-11-29T07:20:28.947Z,1010.11
2022-11-29T07:21:28.938Z,1010.12
2022-11-29T07:22:28.927Z,1010.11
2022-11-29T07:23:28.928Z,1010.14
2022-11-29T07:24:28.938Z,1010.12
2022-11-29T07:25:28.897Z,1010.13
2022-11-29T07:26:28.887Z,1010.16
2022-11-29T07:27:28.878Z,1010.17
2022-11-29T07:28:28.859Z,1010.16
2022-11-29T07:29:28.858Z,1010.19
2022-11-29T07:30:29.011Z,1010.19
2022-11-29T07:31:28.917Z,1010.19
2022-11-29T07:32:28.817Z,1010.20
2022-11-29T07:33:28.841Z,1010.24
2022-11-29T07:34:28.796Z,1010.24
2022-11-29T07:35:28.787Z,1010.23
2022-11-29T07:36:28.776Z,1010.31
2022-11-29T07:37:28.807Z,1010.32
2022-11-29T07:38:28.754Z,1010.27
2022-11-29T07:39:30.445Z,1010.30
2022-11-29T07:40:31.970Z,1010.30
2022-11-29T07:41:30.008Z,1010.33
2022-11-29T07:42:28.706Z,1010.35
2022-11-29T07:43:28.747Z,1010.37
2022-11-29T07:44:28.720Z,1010.37
2022-11-29T07:45:28.692Z,1010.34
2022-11-29T07:46:28.737Z,1010.38
2022-11-29T07:47:34.071Z,1010.41
2022-11-29T07:48:29.656Z,1010.40
2022-11-29T07:49:28.648Z,1010.42
2022-11-29T07:50:28.626Z,1010.40
2022-11-29T07:51:28.659Z,1010.42
2022-11-29T07:52:28.606Z,1010.44
2022-11-29T07:53:28.596Z,1010.45
2022-11-29T07:54:28.625Z,1010.44
2022-11-29T07:55:28.595Z,1010.49
2022-11-29T07:56:28.694Z,1010.46
2022-11-29T07:57:28.555Z,1010.52
2022-11-29T07:58:28.582Z,1010.49
2022-11-29T07:59:28.545Z,1010.48
2022-11-29T08:00:38.514Z,1010.50
2022-11-29T08:01:28.544Z,1010.49
2022-11-29T08:02:28.556Z,1010.52
2022-11-29T08:03:28.486Z,1010.49
2022-11-29T08:04:28.495Z,1010.51
2022-11-29T08:05:28.546Z,1010.52
2022-11-29T08:06:28.545Z,1010.53
2022-11-29T08:07:30.748Z,1010.54
2022-11-29T08:08:28.434Z,1010.56
2022-11-29T08:09:28.435Z,1010.58
2022-11-29T08:10:28.406Z,1010.62
2022-11-29T08:11:28.406Z,1010.58
2022-11-29T08:12:28.385Z,1010.62
2022-11-29T08:13:28.695Z,1010.59
2022-11-29T08:14:28.394Z,1010.56
2022-11-29T08:15:28.384Z,1010.54
2022-11-29T08:16:28.383Z,1010.54
2022-11-29T08:17:28.383Z,1010.51
2022-11-29T08:18:28.325Z,1010.54
2022-11-29T08:19:28.365Z,1010.55
2022-11-29T08:20:28.452Z,1010.58
2022-11-29T08:21:28.294Z,1010.54
2022-11-29T08:22:28.284Z,1010.57
2022-11-29T08:23:28.265Z,1010.61
2022-11-29T08:24:28.327Z,1010.54
2022-11-29T08:25:28.814Z,1010.56
2022-11-29T08:26:31.421Z,1010.59
2022-11-29T08:27:28.224Z,1010.61
2022-11-29T08:28:28.220Z,1010.64
2022-11-29T08:29:28.211Z,1010.62
2022-11-29T08:30:28.246Z,1010.65
2022-11-29T08:31:28.225Z,1010.67
2022-11-29T08:32:28.226Z,1010.66
2022-11-29T08:33:28.174Z,1010.63
2022-11-29T08:34:28.163Z,1010.65
2022-11-29T08:35:28.144Z,1010.64
2022-11-29T08:36:28.133Z,1010.66
2022-11-29T08:37:28.124Z,1010.67
2022-11-29T08:38:28.414Z,1010.68
2022-11-29T08:39:28.110Z,1010.69
2022-11-29T08:40:28.092Z,1010.67
2022-11-29T08:41:28.081Z,1010.73
2022-11-29T08:42:28.074Z,1010.71
2022-11-29T08:43:28.133Z,1010.72
2022-11-29T08:44:28.094Z,1010.76
2022-11-29T08:45:28.095Z,1010.75
2022-11-29T08:46:28.022Z,1010.74
2022-11-29T08:47:28.672Z,1010.70
2022-11-29T08:48:28.002Z,1010.77
2022-11-29T08:49:27.994Z,1010.80
2022-11-29T08:50:28.050Z,1010.78
2022-11-29T08:51:28.012Z,1010.79
2022-11-29T08:52:27.974Z,1010.79
2022-11-29T08:53:27.972Z,1010.83
2022-11-29T08:54:28.145Z,1010.84
2022-11-29T08:55:27.966Z,1010.86
2022-11-29T08:57:39.726Z,1010.88
2022-11-29T08:58:28.897Z,1010.87
2022-11-29T08:59:27.877Z,1010.90
2022-11-29T09:00:27.899Z,1010.92
2022-11-29T09:01:29.785Z,1010.92
2022-11-29T09:02:27.967Z,1010.96
2022-11-29T09:03:27.871Z,1010.99
2022-11-29T09:04:27.832Z,1010.97
2022-11-29T09:05:27.821Z,1010.98
2022-11-29T09:06:27.823Z,1011.00
2022-11-29T09:07:27.827Z,1010.99
2022-11-29T09:08:34.877Z,1010.97
2022-11-29T09:09:27.768Z,1010.99
2022-11-29T09:10:28.506Z,1011.03
2022-11-29T09:11:27.747Z,1011.05
2022-11-29T09:12:27.898Z,1011.06
2022-11-29T09:13:27.738Z,1011.07
2022-11-29T09:14:27.756Z,1011.06
2022-11-29T09:15:27.712Z,1011.06
2022-11-29T09:16:27.750Z,1011.10
2022-11-29T09:17:27.688Z,1011.13
2022-11-29T09:18:27.689Z,1011.11
2022-11-29T09:19:27.675Z,1011.14
2022-11-29T09:20:27.692Z,1011.15
2022-11-29T09:21:27.638Z,1011.18
2022-11-29T09:22:27.627Z,1011.20
2022-11-29T09:23:27.615Z,1011.19
2022-11-29T09:24:27.618Z,1011.22
2022-11-29T09:25:27.623Z,1011.18
2022-11-29T09:26:27.594Z,1011.20
2022-11-29T09:27:27.565Z,1011.23
2022-11-29T09:28:27.601Z,1011.23
2022-11-29T09:29:27.547Z,1011.25
2022-11-29T09:30:27.545Z,1011.25
2022-11-29T09:31:27.698Z,1011.27
2022-11-29T09:32:27.525Z,1011.28
2022-11-29T09:33:27.506Z,1011.26
2022-11-29T09:34:27.494Z,1011.32
2022-11-29T09:35:27.512Z,1011.33
2022-11-29T09:36:29.085Z,1011.30
2022-11-29T09:37:27.636Z,1011.38
2022-11-29T09:38:27.474Z,1011.37
2022-11-29T09:39:27.452Z,1011.38
2022-11-29T09:40:27.445Z,1011.34
2022-11-29T09:41:27.455Z,1011.34
2022-11-29T09:42:27.415Z,1011.40
2022-11-29T09:43:27.406Z,1011.36
2022-11-29T09:44:27.396Z,1011.40
2022-11-29T09:45:27.384Z,1011.42
2022-11-29T09:46:27.516Z,1011.43
2022-11-29T09:47:27.355Z,1011.41
2022-11-29T09:48:33.264Z,1011.46
2022-11-29T09:49:27.346Z,1011.46
2022-11-29T09:50:27.335Z,1011.51
2022-11-29T09:51:27.315Z,1011.57
2022-11-29T09:52:27.305Z,1011.53
2022-11-29T09:53:33.714Z,1011.54
2022-11-29T09:54:27.286Z,1011.52
2022-11-29T09:55:27.273Z,1011.51
2022-11-29T09:56:27.264Z,1011.52
2022-11-29T09:57:27.245Z,1011.51
2022-11-29T09:58:28.953Z,1011.52
2022-11-29T09:59:27.233Z,1011.51
2022-11-29T10:00:27.225Z,1011.57
2022-11-29T10:01:27.236Z,1011.55
2022-11-29T10:02:27.254Z,1011.57
2022-11-29T10:03:27.204Z,1011.51
2022-11-29T10:04:27.203Z,1011.59
2022-11-29T10:05:27.193Z,1011.57
2022-11-29T10:06:27.154Z,1011.59
2022-11-29T10:07:27.206Z,1011.58
2022-11-29T10:08:27.143Z,1011.64
2022-11-29T10:09:32.240Z,1011.68
2022-11-29T10:10:28.113Z,1011.59
2022-11-29T10:11:27.259Z,1011.58
2022-11-29T10:12:27.095Z,1011.61
2022-11-29T10:13:27.085Z,1011.59
2022-11-29T10:14:29.443Z,1011.59
2022-11-29T10:15:27.055Z,1011.58
2022-11-29T10:16:27.110Z,1011.60
2022-11-29T10:17:27.033Z,1011.63
2022-11-29T10:18:27.031Z,1011.58
2022-11-29T10:19:27.021Z,1011.59
2022-11-29T10:20:27.117Z,1011.63
2022-11-29T10:21:27.001Z,1011.61
2022-11-29T10:22:27.011Z,1011.64
2022-11-29T10:23:26.963Z,1011.61
2022-11-29T10:24:26.967Z,1011.62
2022-11-29T10:25:26.941Z,1011.62
2022-11-29T10:26:32.025Z,1011.62
2022-11-29T10:27:27.921Z,1011.64
2022-11-29T10:28:26.920Z,1011.64
2022-11-29T10:29:26.901Z,1011.66
2022-11-29T10:30:26.934Z,1011.63
2022-11-29T10:31:26.890Z,1011.65
2022-11-29T10:32:26.892Z,1011.64
2022-11-29T10:33:26.859Z,1011.62
2022-11-29T10:34:26.865Z,1011.62
2022-11-29T10:35:26.840Z,1011.63
2022-11-29T10:36:27.220Z,1011.64
2022-11-29T10:37:26.810Z,1011.58
2022-11-29T10:38:31.444Z,1011.62
2022-11-29T10:39:27.791Z,1011.61
2022-11-29T10:40:26.780Z,1011.58
2022-11-29T10:41:26.770Z,1011.59
2022-11-29T10:42:26.768Z,1011.58
2022-11-29T10:43:26.748Z,1011.54
2022-11-29T10:44:26.783Z,1011.56
2022-11-29T10:45:26.969Z,1011.58
2022-11-29T10:46:26.792Z,1011.58
2022-11-29T10:47:26.712Z,1011.58
2022-11-29T10:48:26.708Z,1011.62
2022-11-29T10:49:26.719Z,1011.61
2022-11-29T10:50:26.707Z,1011.63
2022-11-29T10:51:26.840Z,1011.61
2022-11-29T10:52:26.698Z,1011.63
2022-11-29T10:53:26.641Z,1011.62
2022-11-29T10:54:26.658Z,1011.58
2022-11-29T10:55:26.629Z,1011.60
2022-11-29T10:56:26.622Z,1011.56
2022-11-29T10:57:26.639Z,1011.64
2022-11-29T10:58:28.550Z,1011.59
2022-11-29T10:59:28.389Z,1011.61
2022-11-29T11:00:26.569Z,1011.62
2022-11-29T11:01:26.610Z,1011.62
2022-11-29T11:02:26.599Z,1011.64
2022-11-29T11:03:26.529Z,1011.66
2022-11-29T11:04:29.968Z,1011.67
2022-11-29T11:05:26.604Z,1011.67
2022-11-29T11:06:26.512Z,1011.68
2022-11-29T11:07:26.529Z,1011.67
2022-11-29T11:08:26.488Z,1011.66
2022-11-29T11:09:30.051Z,1011.67
2022-11-29T11:10:26.475Z,1011.63
2022-11-29T11:11:26.459Z,1011.66
2022-11-29T11:12:26.451Z,1011.67
2022-11-29T11:13:26.430Z,1011.66
2022-11-29T11:14:26.419Z,1011.67
2022-11-29T11:15:26.535Z,1011.63
2022-11-29T11:16:26.436Z,1011.64
2022-11-29T11:17:26.588Z,1011.64
2022-11-29T11:18:26.629Z,1011.64
2022-11-29T11:19:26.372Z,1011.62
2022-11-29T11:20:26.366Z,1011.63
2022-11-29T11:21:26.369Z,1011.62
2022-11-29T11:22:26.334Z,1011.63
2022-11-29T11:23:32.608Z,1011.58
2022-11-29T11:24:26.309Z,1011.61
2022-11-29T11:25:26.297Z,1011.64
2022-11-29T11:26:26.322Z,1011.59
2022-11-29T11:27:26.277Z,1011.63
2022-11-29T11:28:26.270Z,1011.63
2022-11-29T11:29:27.289Z,1011.65
2022-11-29T11:30:26.248Z,1011.68
2022-11-29T11:31:26.262Z,1011.66
2022-11-29T11:32:26.217Z,1011.68
2022-11-29T11:33:26.207Z,1011.63
2022-11-29T11:34:26.208Z,1011.65
2022-11-29T11:35:26.217Z,1011.68
2022-11-29T11:36:26.208Z,1011.65
2022-11-29T11:37:26.167Z,1011.66
2022-11-29T11:38:26.168Z,1011.70
2022-11-29T11:39:26.175Z,1011.72
2022-11-29T11:40:26.217Z,1011.71
2022-11-29T11:41:26.126Z,1011.72
2022-11-29T11:42:26.197Z,1011.67
2022-11-29T11:43:26.108Z,1011.69
2022-11-29T11:44:46.548Z,1011.72
2022-11-29T11:45:27.078Z,1011.71
2022-11-29T11:46:26.145Z,1011.75
2022-11-29T11:47:26.060Z,1011.69
2022-11-29T11:48:26.056Z,1011.74
2022-11-29T11:49:26.058Z,1011.75
2022-11-29T11:50:26.066Z,1011.77
2022-11-29T11:51:26.019Z,1011.80
2022-11-29T11:52:26.024Z,1011.85
2022-11-29T11:53:26.007Z,1011.83
2022-11-29T11:54:25.988Z,1011.78
2022-11-29T11:55:25.976Z,1011.85
2022-11-29T11:56:26.046Z,1011.87
2022-11-29T11:57:25.969Z,1011.84
2022-11-29T11:58:25.947Z,1011.84
2022-11-29T11:59:25.926Z,1011.81
2022-11-29T12:00:55.493Z,1011.83
2022-11-29T12:01:26.937Z,1011.81
2022-11-29T12:02:25.995Z,1011.84
2022-11-29T12:03:25.934Z,1011.81
2022-11-29T12:04:25.895Z,1011.89
2022-11-29T12:05:25.915Z,1011.82
2022-11-29T12:06:25.907Z,1011.84
2022-11-29T12:07:38.936Z,1011.81